Time;durP1;ratioP1;P1;durP2;ratioP2;P2;SDS_P1;SDS_P2;PMS_P1;PMS_P2;Temp;Humidity;BMP_temperature;BMP_pressure;BME280_temperature;BME280_humidity;BME280_pressure;Samples;Min_cycle;Max_cycle;Signal;HPM_P1;HPM_P2
2023/09/13 00:00:27;;;;;;;24.00;21.73;;;;;;;;;;5003763;28;20257;-46
2023/09/13 00:02:54;;;;;;;23.17;20.97;;;;;;;;;;5003683;28;20266;-45
2023/09/13 00:05:21;;;;;;;23.93;21.63;;;;;;;;;;5008152;28;20542;-47
2023/09/13 00:07:48;;;;;;;23.13;21.00;;;;;;;;;;5007205;28;20182;-46
2023/09/13 00:10:14;;;;;;;23.97;21.77;;;;;;;;;;5006541;28;20194;-45
2023/09/13 00:12:40;;;;;;;25.33;22.77;;;;;;;;;;5006127;28;20188;-45
2023/09/13 00:15:06;;;;;;;21.80;19.53;;;;;;;;;;4989238;28;20185;-47
2023/09/13 00:17:33;;;;;;;22.80;20.50;;;;;;;;;;5004177;28;20189;-46
2023/09/13 00:19:59;;;;;;;22.70;20.50;;;;;;;;;;5005419;28;20220;-46
2023/09/13 00:22:26;;;;;;;24.23;22.03;;;;;;;;;;4985387;28;20196;-45
2023/09/13 00:24:52;;;;;;;23.40;21.20;;;;;;;;;;5006839;28;20215;-46
2023/09/13 00:27:18;;;;;;;23.83;21.57;;;;;;;;;;5006832;28;20717;-47
2023/09/13 00:29:45;;;;;;;24.20;21.80;;;;;;;;;;5007746;28;20596;-46
2023/09/13 00:32:11;;;;;;;25.07;22.57;;;;;;;;;;5004743;28;20201;-44
2023/09/13 00:34:38;;;;;;;24.73;22.20;;;;;;;;;;5007777;28;20188;-45
2023/09/13 00:37:04;;;;;;;23.80;21.50;;;;;;;;;;5006552;28;20236;-48
2023/09/13 00:39:30;;;;;;;25.13;22.60;;;;;;;;;;5006296;28;20177;-45
2023/09/13 00:41:58;;;;;;;24.20;21.97;;;;;;;;;;5005452;28;20178;-45
2023/09/13 00:44:24;;;;;;;25.53;22.93;;;;;;;;;;5005064;28;20655;-45
2023/09/13 00:46:50;;;;;;;25.77;23.17;;;;;;;;;;4999837;28;20275;-45
2023/09/13 00:49:16;;;;;;;25.90;23.40;;;;;;;;;;5006604;28;20231;-46
2023/09/13 00:51:43;;;;;;;27.53;24.40;;;;;;;;;;5006340;28;20617;-45
2023/09/13 00:54:09;;;;;;;26.53;23.93;;;;;;;;;;5005685;28;20231;-47
2023/09/13 00:56:36;;;;;;;27.40;24.87;;;;;;;;;;5005864;28;20602;-45
2023/09/13 00:59:02;;;;;;;30.17;27.10;;;;;;;;;;5010044;28;20213;-47
2023/09/13 01:01:30;;;;;;;28.20;25.30;;;;;;;;;;4991387;28;20193;-46
2023/09/13 01:03:57;;;;;;;30.33;25.90;;;;;;;;;;5008471;28;20216;-47
2023/09/13 01:06:23;;;;;;;29.17;26.07;;;;;;;;;;4992182;28;20721;-47
2023/09/13 01:08:50;;;;;;;28.20;25.43;;;;;;;;;;5006902;28;20186;-46
2023/09/13 01:11:16;;;;;;;28.50;25.50;;;;;;;;;;5010975;28;20576;-47
2023/09/13 01:13:42;;;;;;;30.07;26.93;;;;;;;;;;5009281;28;20181;-47
2023/09/13 01:16:09;;;;;;;30.97;27.67;;;;;;;;;;4991809;28;20188;-46
2023/09/13 01:18:39;;;;;;;28.17;25.00;;;;;;;;;;5010763;28;20180;-46
2023/09/13 01:21:14;;;;;;;29.67;26.47;;;;;;;;;;5009164;28;20180;-46
2023/09/13 01:24:00;;;;;;;23.20;20.70;;;;;;;;;;5010296;28;20177;-46
2023/09/13 01:26:26;;;;;;;23.50;21.23;;;;;;;;;;5011202;28;20187;-53
2023/09/13 01:28:54;;;;;;;21.57;19.53;;;;;;;;;;4988892;28;20324;-46
2023/09/13 01:31:21;;;;;;;22.07;19.80;;;;;;;;;;5009376;28;20669;-47
2023/09/13 01:33:47;;;;;;;23.07;20.77;;;;;;;;;;5009507;28;20542;-46
2023/09/13 01:36:14;;;;;;;21.67;19.40;;;;;;;;;;5008799;28;20598;-46
2023/09/13 01:38:41;;;;;;;21.27;19.13;;;;;;;;;;5009215;28;20205;-47
2023/09/13 01:41:26;;;;;;;20.03;18.17;;;;;;;;;;5010759;28;20528;-46
2023/09/13 01:43:54;;;;;;;19.43;17.43;;;;;;;;;;5007794;28;20178;-46
2023/09/13 01:46:27;;;;;;;19.30;17.40;;;;;;;;;;5008772;28;20226;-46
2023/09/13 01:48:57;;;;;;;19.07;17.10;;;;;;;;;;4991648;28;20218;-47
2023/09/13 01:51:27;;;;;;;19.90;17.80;;;;;;;;;;5008009;28;20203;-48
2023/09/13 01:53:54;;;;;;;20.27;18.30;;;;;;;;;;5007936;28;20270;-46
2023/09/13 01:56:21;;;;;;;21.37;19.10;;;;;;;;;;5008272;28;20240;-45
2023/09/13 01:58:50;;;;;;;23.53;19.67;;;;;;;;;;5008945;28;20645;-47
2023/09/13 02:01:17;;;;;;;22.60;20.30;;;;;;;;;;5008178;28;20191;-46
2023/09/13 02:03:44;;;;;;;21.87;19.57;;;;;;;;;;5006762;28;20494;-46
2023/09/13 02:06:10;;;;;;;23.80;20.27;;;;;;;;;;4990620;28;20179;-46
2023/09/13 02:08:39;;;;;;;22.80;20.47;;;;;;;;;;5003986;28;20550;-46
2023/09/13 02:11:08;;;;;;;24.17;21.57;;;;;;;;;;5006637;28;20287;-47
2023/09/13 02:13:34;;;;;;;25.67;22.87;;;;;;;;;;5008118;28;20174;-45
2023/09/13 02:16:01;;;;;;;24.27;21.57;;;;;;;;;;5007611;28;20705;-46
2023/09/13 02:18:27;;;;;;;25.70;22.97;;;;;;;;;;5006426;28;20180;-45
2023/09/13 02:20:53;;;;;;;25.90;22.57;;;;;;;;;;5008159;28;20184;-45
2023/09/13 02:23:20;;;;;;;24.57;21.93;;;;;;;;;;5007427;28;20192;-47
2023/09/13 02:25:46;;;;;;;25.53;22.93;;;;;;;;;;4985509;28;20289;-45
2023/09/13 02:28:13;;;;;;;25.60;22.83;;;;;;;;;;5007272;28;20231;-45
2023/09/13 02:30:39;;;;;;;27.77;24.77;;;;;;;;;;5007815;28;20242;-45
2023/09/13 02:33:06;;;;;;;29.90;24.33;;;;;;;;;;5008889;28;20660;-44
2023/09/13 02:35:33;;;;;;;28.47;25.53;;;;;;;;;;5008345;28;20172;-46
2023/09/13 02:38:00;;;;;;;30.30;25.87;;;;;;;;;;5007598;28;20636;-46
2023/09/13 02:40:26;;;;;;;30.70;26.10;;;;;;;;;;5009045;28;20253;-46
2023/09/13 02:42:52;;;;;;;30.03;26.93;;;;;;;;;;5007434;28;20197;-46
2023/09/13 02:45:19;;;;;;;29.67;26.60;;;;;;;;;;5009073;28;20194;-46
2023/09/13 02:47:45;;;;;;;30.60;27.27;;;;;;;;;;5008455;28;20200;-46
2023/09/13 02:50:11;;;;;;;30.63;27.37;;;;;;;;;;5009455;28;20669;-45
2023/09/13 02:52:38;;;;;;;32.33;27.60;;;;;;;;;;5004849;28;20180;-46
2023/09/13 02:55:07;;;;;;;33.17;28.63;;;;;;;;;;5009901;28;20666;-45
2023/09/13 02:57:34;;;;;;;29.47;26.23;;;;;;;;;;5008302;28;20202;-47
2023/09/13 03:00:03;;;;;;;34.23;28.63;;;;;;;;;;5008479;28;20325;-46
2023/09/13 03:02:30;;;;;;;32.67;28.50;;;;;;;;;;4990499;28;20191;-47
2023/09/13 03:04:56;;;;;;;33.67;29.07;;;;;;;;;;5008315;28;20228;-48
2023/09/13 03:07:22;;;;;;;38.07;30.87;;;;;;;;;;5006278;28;20269;-46
2023/09/13 03:09:54;;;;;;;34.77;30.50;;;;;;;;;;5009152;28;20293;-46
2023/09/13 03:12:20;;;;;;;36.03;30.00;;;;;;;;;;5007511;28;20268;-45
2023/09/13 03:14:46;;;;;;;36.30;30.63;;;;;;;;;;5008892;28;20235;-45
2023/09/13 03:17:13;;;;;;;36.47;31.77;;;;;;;;;;5001613;28;20577;-45
2023/09/13 03:19:39;;;;;;;35.27;29.67;;;;;;;;;;5008452;28;20575;-46
2023/09/13 03:22:05;;;;;;;34.10;28.90;;;;;;;;;;5007548;28;20657;-46
2023/09/13 03:24:31;;;;;;;34.77;28.13;;;;;;;;;;5008188;28;20196;-45
2023/09/13 03:26:58;;;;;;;37.30;30.60;;;;;;;;;;5007575;28;20186;-46
2023/09/13 03:29:24;;;;;;;32.37;26.60;;;;;;;;;;5007050;28;20560;-49
2023/09/13 03:31:50;;;;;;;36.90;31.07;;;;;;;;;;5008991;28;20209;-46
2023/09/13 03:34:17;;;;;;;35.53;29.60;;;;;;;;;;4985396;28;20641;-45
2023/09/13 03:36:46;;;;;;;34.03;27.33;;;;;;;;;;5005144;28;20216;-44
2023/09/13 03:39:13;;;;;;;37.37;30.37;;;;;;;;;;5007078;28;20593;-47
2023/09/13 03:41:39;;;;;;;38.83;29.17;;;;;;;;;;5008015;28;20176;-48
2023/09/13 03:44:05;;;;;;;34.30;28.63;;;;;;;;;;5002508;28;20609;-46
2023/09/13 03:46:32;;;;;;;35.00;28.67;;;;;;;;;;5006923;28;20199;-47
2023/09/13 03:48:58;;;;;;;37.87;30.20;;;;;;;;;;5004855;28;20188;-46
2023/09/13 03:51:24;;;;;;;38.40;29.23;;;;;;;;;;5005653;28;20237;-48
2023/09/13 03:53:50;;;;;;;37.90;30.07;;;;;;;;;;5006015;28;20188;-47
2023/09/13 03:56:17;;;;;;;37.90;30.17;;;;;;;;;;5006425;28;20196;-46
2023/09/13 03:58:43;;;;;;;41.90;31.37;;;;;;;;;;5007468;28;20551;-45
2023/09/13 04:01:10;;;;;;;41.27;32.40;;;;;;;;;;5006953;28;20496;-47
2023/09/13 04:03:37;;;;;;;41.83;32.53;;;;;;;;;;5007892;28;20251;-46
2023/09/13 04:06:03;;;;;;;36.93;30.93;;;;;;;;;;5006956;28;20591;-46
2023/09/13 04:08:29;;;;;;;43.23;30.67;;;;;;;;;;5006895;28;20191;-45
2023/09/13 04:10:55;;;;;;;41.73;31.70;;;;;;;;;;5000372;28;20308;-46
2023/09/13 04:13:22;;;;;;;45.30;34.00;;;;;;;;;;5006903;28;20844;-47
2023/09/13 04:15:48;;;;;;;37.67;32.07;;;;;;;;;;4990376;28;20207;-45
2023/09/13 04:18:15;;;;;;;39.47;31.90;;;;;;;;;;5006256;28;20201;-45
2023/09/13 04:20:46;;;;;;;39.70;31.17;;;;;;;;;;5007186;28;20200;-48
2023/09/13 04:23:13;;;;;;;38.70;32.60;;;;;;;;;;5007561;28;20283;-47
2023/09/13 04:25:40;;;;;;;41.00;33.20;;;;;;;;;;5001167;28;20591;-47
2023/09/13 04:28:06;;;;;;;40.57;32.63;;;;;;;;;;5007053;28;20234;-45
2023/09/13 04:30:33;;;;;;;46.33;34.13;;;;;;;;;;4989027;28;20224;-46
2023/09/13 04:33:02;;;;;;;47.97;36.33;;;;;;;;;;5006169;28;20267;-45
2023/09/13 04:35:29;;;;;;;49.57;34.13;;;;;;;;;;5006405;28;20176;-45
2023/09/13 04:37:55;;;;;;;45.33;35.33;;;;;;;;;;4995677;28;20550;-47
2023/09/13 04:40:21;;;;;;;45.83;34.33;;;;;;;;;;5007303;28;20184;-48
2023/09/13 04:42:51;;;;;;;49.60;36.37;;;;;;;;;;5007624;28;20712;-48
2023/09/13 04:45:17;;;;;;;41.17;32.53;;;;;;;;;;4999502;28;20522;-46
2023/09/13 04:47:44;;;;;;;46.73;34.33;;;;;;;;;;5006660;28;20497;-46
2023/09/13 04:50:10;;;;;;;42.80;32.00;;;;;;;;;;5005625;28;20594;-47
2023/09/13 04:52:36;;;;;;;40.47;30.93;;;;;;;;;;5001806;28;20183;-47
2023/09/13 04:55:03;;;;;;;40.47;30.70;;;;;;;;;;5006881;28;20177;-46
2023/09/13 04:57:29;;;;;;;41.97;32.43;;;;;;;;;;5004902;28;20713;-47
2023/09/13 04:59:55;;;;;;;39.93;30.57;;;;;;;;;;5007326;28;20308;-46
2023/09/13 05:02:21;;;;;;;42.00;30.40;;;;;;;;;;5005373;28;20193;-46
2023/09/13 05:04:48;;;;;;;44.53;31.10;;;;;;;;;;5007512;28;20190;-46
2023/09/13 05:07:14;;;;;;;39.17;30.40;;;;;;;;;;5005643;28;20194;-46
2023/09/13 05:09:40;;;;;;;40.67;31.40;;;;;;;;;;5006519;28;20200;-46
2023/09/13 05:12:06;;;;;;;40.83;31.67;;;;;;;;;;5005256;28;20179;-46
2023/09/13 05:14:33;;;;;;;42.87;31.93;;;;;;;;;;5007273;28;20198;-47
2023/09/13 05:17:00;;;;;;;40.27;32.80;;;;;;;;;;5004992;28;20686;-46
2023/09/13 05:19:26;;;;;;;44.53;33.27;;;;;;;;;;5005741;28;20190;-47
2023/09/13 05:21:52;;;;;;;41.17;31.50;;;;;;;;;;5002169;28;20238;-49
2023/09/13 05:24:18;;;;;;;37.57;28.70;;;;;;;;;;5007826;28;20539;-49
2023/09/13 05:26:44;;;;;;;34.87;26.47;;;;;;;;;;5006444;28;20193;-48
2023/09/13 05:29:10;;;;;;;38.30;27.53;;;;;;;;;;5005427;28;20233;-48
2023/09/13 05:31:36;;;;;;;34.13;24.90;;;;;;;;;;5006615;28;20211;-47
2023/09/13 05:34:03;;;;;;;29.80;25.87;;;;;;;;;;5004664;28;20280;-48
2023/09/13 05:36:30;;;;;;;28.33;23.43;;;;;;;;;;5006447;28;20185;-48
2023/09/13 05:38:56;;;;;;;29.30;23.27;;;;;;;;;;5005821;28;20189;-48
2023/09/13 05:41:24;;;;;;;25.80;21.60;;;;;;;;;;5004788;28;20647;-48
2023/09/13 05:43:50;;;;;;;26.77;22.37;;;;;;;;;;5002470;28;20183;-49
2023/09/13 05:46:16;;;;;;;36.20;24.13;;;;;;;;;;5005622;28;20215;-48
2023/09/13 05:48:43;;;;;;;27.30;21.90;;;;;;;;;;5009412;28;20308;-48
2023/09/13 05:51:09;;;;;;;23.90;20.20;;;;;;;;;;5005261;28;20215;-48
2023/09/13 05:53:35;;;;;;;23.20;19.67;;;;;;;;;;5007529;28;20178;-47
2023/09/13 05:56:05;;;;;;;20.83;17.83;;;;;;;;;;5009186;28;20184;-48
2023/09/13 05:58:32;;;;;;;20.17;18.00;;;;;;;;;;5010509;28;20186;-50
2023/09/13 06:00:58;;;;;;;24.33;19.50;;;;;;;;;;5006593;28;20179;-48
2023/09/13 06:03:24;;;;;;;21.83;19.37;;;;;;;;;;5009486;28;20210;-51
2023/09/13 06:05:51;;;;;;;21.50;18.13;;;;;;;;;;5009150;28;20179;-51
2023/09/13 06:08:17;;;;;;;20.40;17.27;;;;;;;;;;4991899;28;20237;-51
2023/09/13 06:10:44;;;;;;;25.87;18.83;;;;;;;;;;5006608;28;20344;-51
2023/09/13 06:13:10;;;;;;;23.47;18.57;;;;;;;;;;5009520;28;20187;-51
2023/09/13 06:15:36;;;;;;;22.10;18.73;;;;;;;;;;5006993;28;20175;-51
2023/09/13 06:18:02;;;;;;;21.40;18.03;;;;;;;;;;4999967;28;20186;-51
2023/09/13 06:20:29;;;;;;;21.63;17.67;;;;;;;;;;5008097;28;20183;-52
2023/09/13 06:22:55;;;;;;;21.77;18.23;;;;;;;;;;5005503;28;20206;-51
2023/09/13 06:25:21;;;;;;;19.77;17.07;;;;;;;;;;5009629;28;20678;-51
2023/09/13 06:27:47;;;;;;;20.43;18.30;;;;;;;;;;5006174;28;20226;-51
2023/09/13 06:30:13;;;;;;;18.53;16.63;;;;;;;;;;4992038;28;20214;-51
2023/09/13 06:32:40;;;;;;;20.37;17.00;;;;;;;;;;5010543;28;20178;-51
2023/09/13 06:35:06;;;;;;;22.07;17.63;;;;;;;;;;5008342;28;20175;-51
2023/09/13 06:37:32;;;;;;;22.27;19.47;;;;;;;;;;5013001;28;20272;-51
2023/09/13 06:39:58;;;;;;;21.20;17.40;;;;;;;;;;5010931;28;20184;-51
2023/09/13 06:42:24;;;;;;;17.97;16.03;;;;;;;;;;5005935;28;20301;-51
2023/09/13 06:44:50;;;;;;;19.90;17.77;;;;;;;;;;5007854;28;20277;-51
2023/09/13 06:47:16;;;;;;;20.50;17.87;;;;;;;;;;5009921;28;20198;-51
2023/09/13 06:49:43;;;;;;;19.93;17.60;;;;;;;;;;5013327;28;20269;-51
2023/09/13 06:52:09;;;;;;;19.23;16.73;;;;;;;;;;5015044;28;20897;-51
2023/09/13 06:54:35;;;;;;;21.80;18.23;;;;;;;;;;5011578;28;20626;-52
2023/09/13 06:57:01;;;;;;;21.47;17.23;;;;;;;;;;5011043;28;20542;-51
2023/09/13 06:59:28;;;;;;;21.47;18.40;;;;;;;;;;5014521;28;20210;-52
2023/09/13 07:01:54;;;;;;;19.13;17.20;;;;;;;;;;4990706;28;20536;-51
2023/09/13 07:04:20;;;;;;;22.63;17.87;;;;;;;;;;5007133;28;20260;-51
2023/09/13 07:06:46;;;;;;;20.38;18.17;;;;;;;;;;5011159;28;20576;-51
2023/09/13 07:09:13;;;;;;;18.57;16.73;;;;;;;;;;5007262;28;20193;-51
2023/09/13 07:11:39;;;;;;;21.17;17.77;;;;;;;;;;5008301;28;22091;-50
2023/09/13 07:14:05;;;;;;;21.47;18.20;;;;;;;;;;5009041;28;20179;-51
2023/09/13 07:16:31;;;;;;;21.00;18.80;;;;;;;;;;5008211;28;20175;-51
2023/09/13 07:18:57;;;;;;;20.57;17.40;;;;;;;;;;5009448;28;20485;-51
2023/09/13 07:21:23;;;;;;;19.10;16.80;;;;;;;;;;5006504;28;20193;-51
2023/09/13 07:23:51;;;;;;;20.03;17.00;;;;;;;;;;5009429;28;20566;-51
2023/09/13 07:26:17;;;;;;;20.53;17.17;;;;;;;;;;5008723;28;20272;-51
2023/09/13 07:28:43;;;;;;;21.43;16.93;;;;;;;;;;5006950;28;20538;-50
2023/09/13 07:31:10;;;;;;;20.47;17.17;;;;;;;;;;5006668;28;20217;-51
2023/09/13 07:33:36;;;;;;;22.83;19.83;;;;;;;;;;5009615;28;20290;-51
2023/09/13 07:36:03;;;;;;;21.20;17.57;;;;;;;;;;4990152;28;21602;-50
2023/09/13 07:38:29;;;;;;;20.37;17.53;;;;;;;;;;5002465;28;20179;-52
2023/09/13 07:40:55;;;;;;;19.60;17.33;;;;;;;;;;5007058;28;20180;-52
2023/09/13 07:43:21;;;;;;;22.67;16.43;;;;;;;;;;5006053;28;20224;-53
2023/09/13 07:45:47;;;;;;;24.33;18.57;;;;;;;;;;5013719;28;20190;-51
2023/09/13 07:48:14;;;;;;;19.13;16.23;;;;;;;;;;5013865;28;20524;-51
2023/09/13 07:50:40;;;;;;;21.63;18.03;;;;;;;;;;5011934;28;20571;-50
2023/09/13 07:53:10;;;;;;;18.90;16.90;;;;;;;;;;4999193;28;20190;-51
2023/09/13 07:55:37;;;;;;;18.80;16.40;;;;;;;;;;5012146;28;20610;-51
2023/09/13 07:58:03;;;;;;;20.37;17.57;;;;;;;;;;5009187;28;20542;-51
2023/09/13 08:00:30;;;;;;;18.33;16.33;;;;;;;;;;5015036;28;20636;-51
2023/09/13 08:02:56;;;;;;;22.17;16.87;;;;;;;;;;5006810;28;20191;-51
2023/09/13 08:05:22;;;;;;;18.73;16.37;;;;;;;;;;5004952;28;20190;-51
2023/09/13 08:07:48;;;;;;;20.37;16.97;;;;;;;;;;5003100;28;20197;-51
2023/09/13 08:10:14;;;;;;;21.43;17.47;;;;;;;;;;4988081;28;20210;-51
2023/09/13 08:12:41;;;;;;;19.57;16.60;;;;;;;;;;5012873;28;20182;-51
2023/09/13 08:15:08;;;;;;;19.77;16.77;;;;;;;;;;5008876;28;20195;-51
2023/09/13 08:17:34;;;;;;;19.47;17.00;;;;;;;;;;5007434;28;20182;-51
2023/09/13 08:20:01;;;;;;;18.40;15.50;;;;;;;;;;5007283;28;20660;-50
2023/09/13 08:22:27;;;;;;;17.00;15.20;;;;;;;;;;5004147;28;20664;-51
2023/09/13 08:24:54;;;;;;;17.70;14.97;;;;;;;;;;5007832;28;20625;-52
2023/09/13 08:27:20;;;;;;;17.40;15.43;;;;;;;;;;5007973;28;20192;-51
2023/09/13 08:29:46;;;;;;;19.03;15.27;;;;;;;;;;5007376;28;20219;-51
2023/09/13 08:32:12;;;;;;;18.40;15.83;;;;;;;;;;5003550;28;20243;-51
2023/09/13 08:34:38;;;;;;;16.53;14.33;;;;;;;;;;5009327;28;20328;-52
2023/09/13 08:37:05;;;;;;;19.70;14.93;;;;;;;;;;4985841;28;20636;-51
2023/09/13 08:39:31;;;;;;;19.63;14.07;;;;;;;;;;5007766;28;20176;-51
2023/09/13 08:41:58;;;;;;;19.20;13.83;;;;;;;;;;5006378;28;20524;-51
2023/09/13 08:44:25;;;;;;;15.83;14.03;;;;;;;;;;5009276;28;20210;-51
2023/09/13 08:46:55;;;;;;;14.20;12.80;;;;;;;;;;5005845;28;20176;-51
2023/09/13 08:49:21;;;;;;;17.93;14.57;;;;;;;;;;5002767;28;20189;-52
2023/09/13 08:51:48;;;;;;;16.23;14.13;;;;;;;;;;5007852;28;20710;-51
2023/09/13 08:54:15;;;;;;;14.70;13.17;;;;;;;;;;5005545;28;20295;-52
2023/09/13 08:56:45;;;;;;;17.37;14.03;;;;;;;;;;5011865;28;20206;-54
2023/09/13 08:59:15;;;;;;;16.97;14.57;;;;;;;;;;4988683;28;20261;-52
2023/09/13 09:01:44;;;;;;;19.60;14.40;;;;;;;;;;5012200;28;20538;-52
2023/09/13 09:04:10;;;;;;;16.63;13.90;;;;;;;;;;5003497;28;20337;-52
2023/09/13 09:06:36;;;;;;;16.90;14.30;;;;;;;;;;5000650;28;20296;-52
2023/09/13 09:09:04;;;;;;;17.30;14.87;;;;;;;;;;5006662;28;20649;-51
2023/09/13 09:11:32;;;;;;;15.63;13.93;;;;;;;;;;5006904;28;20277;-52
2023/09/13 09:14:01;;;;;;;18.10;14.23;;;;;;;;;;5006178;28;20178;-52
2023/09/13 09:16:27;;;;;;;19.37;13.50;;;;;;;;;;5009109;28;20734;-51
2023/09/13 09:18:54;;;;;;;17.07;14.30;;;;;;;;;;5004764;28;20316;-51
2023/09/13 09:21:20;;;;;;;17.10;14.10;;;;;;;;;;5003946;28;20251;-52
2023/09/13 09:23:47;;;;;;;16.63;13.73;;;;;;;;;;5010603;28;20195;-51
2023/09/13 09:26:13;;;;;;;22.87;13.93;;;;;;;;;;5009539;28;20186;-52
2023/09/13 09:28:39;;;;;;;16.33;14.67;;;;;;;;;;5013945;28;20603;-52
2023/09/13 09:31:05;;;;;;;16.80;13.13;;;;;;;;;;5016062;28;20209;-53
2023/09/13 09:33:33;;;;;;;15.83;14.23;;;;;;;;;;5009045;28;20196;-51
2023/09/13 09:36:00;;;;;;;14.60;12.77;;;;;;;;;;5009676;28;20660;-52
2023/09/13 09:38:30;;;;;;;15.87;13.80;;;;;;;;;;5016272;28;20182;-51
2023/09/13 09:40:57;;;;;;;14.93;12.17;;;;;;;;;;5004075;28;20211;-52
2023/09/13 09:43:23;;;;;;;13.37;11.87;;;;;;;;;;4990344;28;20282;-52
2023/09/13 09:45:50;;;;;;;17.67;13.97;;;;;;;;;;5009775;28;20201;-53
2023/09/13 09:48:16;;;;;;;13.63;12.30;;;;;;;;;;5011955;28;20245;-53
2023/09/13 09:50:45;;;;;;;15.00;12.90;;;;;;;;;;5009226;28;20687;-52
2023/09/13 09:53:13;;;;;;;14.70;13.17;;;;;;;;;;5004576;28;20180;-51
2023/09/13 09:55:39;;;;;;;15.03;12.13;;;;;;;;;;5012027;28;20194;-52
2023/09/13 09:58:06;;;;;;;16.93;13.07;;;;;;;;;;5012314;28;20177;-52
2023/09/13 10:00:43;;;;;;;20.87;14.23;;;;;;;;;;5009402;28;20201;-51
2023/09/13 10:03:15;;;;;;;14.53;12.83;;;;;;;;;;4984701;28;20199;-52
2023/09/13 10:05:50;;;;;;;14.10;12.70;;;;;;;;;;5007413;28;20279;-52
2023/09/13 10:08:17;;;;;;;12.57;10.83;;;;;;;;;;5005585;28;20187;-52
2023/09/13 10:10:43;;;;;;;13.97;10.97;;;;;;;;;;5014005;28;20210;-53
2023/09/13 10:13:13;;;;;;;9.43;8.50;;;;;;;;;;5009537;28;20225;-53
2023/09/13 10:15:40;;;;;;;10.70;8.20;;;;;;;;;;5012880;28;20185;-52
2023/09/13 10:18:07;;;;;;;9.33;8.33;;;;;;;;;;5012213;28;20170;-52
2023/09/13 10:20:34;;;;;;;8.60;7.17;;;;;;;;;;5012264;28;20637;-52
2023/09/13 10:23:01;;;;;;;8.97;6.73;;;;;;;;;;5008086;28;20201;-52
2023/09/13 10:25:30;;;;;;;8.70;5.97;;;;;;;;;;5005089;28;20196;-52
2023/09/13 10:27:57;;;;;;;9.03;7.20;;;;;;;;;;5006399;28;20226;-52
2023/09/13 10:30:25;;;;;;;6.20;5.50;;;;;;;;;;5011132;28;20724;-52
2023/09/13 10:32:57;;;;;;;10.13;6.67;;;;;;;;;;5009167;28;20264;-52
2023/09/13 10:35:24;;;;;;;8.67;5.80;;;;;;;;;;5007000;28;20183;-52
2023/09/13 10:38:08;;;;;;;6.73;6.03;;;;;;;;;;4990300;28;20207;-52
2023/09/13 10:40:35;;;;;;;5.87;5.20;;;;;;;;;;5001584;28;20289;-52
2023/09/13 10:43:01;;;;;;;5.53;4.60;;;;;;;;;;5006449;28;20186;-51
2023/09/13 10:45:27;;;;;;;5.77;4.50;;;;;;;;;;5007996;28;20213;-52
2023/09/13 10:47:55;;;;;;;5.80;4.50;;;;;;;;;;5012015;28;20192;-51
2023/09/13 10:50:21;;;;;;;5.77;4.40;;;;;;;;;;5007667;28;20249;-51
2023/09/13 10:52:50;;;;;;;4.10;3.47;;;;;;;;;;5004882;28;20178;-51
2023/09/13 10:55:16;;;;;;;4.10;3.20;;;;;;;;;;5006813;28;20178;-52
2023/09/13 10:57:43;;;;;;;4.40;3.97;;;;;;;;;;4993030;28;20180;-51
2023/09/13 11:00:10;;;;;;;4.00;3.40;;;;;;;;;;5004028;28;20186;-51
2023/09/13 11:02:44;;;;;;;4.93;3.07;;;;;;;;;;5006627;28;20245;-54
2023/09/13 11:05:11;;;;;;;3.97;3.07;;;;;;;;;;5008130;28;20199;-51
2023/09/13 11:07:41;;;;;;;3.37;2.63;;;;;;;;;;5002536;28;20180;-51
2023/09/13 11:10:12;;;;;;;3.83;3.13;;;;;;;;;;5008003;28;20187;-52
2023/09/13 11:12:39;;;;;;;3.67;2.77;;;;;;;;;;5010361;28;20180;-52
2023/09/13 11:15:14;;;;;;;3.37;2.70;;;;;;;;;;5009848;28;20179;-52
2023/09/13 11:17:43;;;;;;;2.50;2.30;;;;;;;;;;5006434;28;20370;-51
2023/09/13 11:20:33;;;;;;;4.03;2.73;;;;;;;;;;5009002;28;20252;-52
2023/09/13 11:23:09;;;;;;;2.70;2.50;;;;;;;;;;5012768;28;20183;-53
2023/09/13 11:25:41;;;;;;;3.03;2.33;;;;;;;;;;5008221;28;20174;-52
2023/09/13 11:28:08;;;;;;;3.47;2.50;;;;;;;;;;5007779;28;20222;-52
2023/09/13 11:30:51;;;;;;;2.43;2.23;;;;;;;;;;5004733;28;20628;-52
2023/09/13 11:33:18;;;;;;;3.20;2.40;;;;;;;;;;5018085;28;20174;-52
2023/09/13 11:35:44;;;;;;;2.70;2.50;;;;;;;;;;5011422;28;20172;-53
2023/09/13 11:38:14;;;;;;;2.57;2.23;;;;;;;;;;5008620;28;20175;-52
2023/09/13 11:40:47;;;;;;;2.50;2.30;;;;;;;;;;5010478;28;20741;-52
2023/09/13 11:43:19;;;;;;;2.90;2.60;;;;;;;;;;5008506;28;20526;-52
2023/09/13 11:45:47;;;;;;;2.47;2.27;;;;;;;;;;5001642;28;20183;-52
2023/09/13 11:48:13;;;;;;;2.60;2.40;;;;;;;;;;4991318;28;20183;-50
2023/09/13 11:50:43;;;;;;;3.10;2.30;;;;;;;;;;5006917;28;20213;-52
2023/09/13 11:53:13;;;;;;;3.40;2.60;;;;;;;;;;5007690;28;20163;-52
2023/09/13 11:55:43;;;;;;;2.30;2.10;;;;;;;;;;5007237;28;20665;-52
2023/09/13 11:58:15;;;;;;;3.10;2.83;;;;;;;;;;5007683;28;20522;-52
2023/09/13 12:00:42;;;;;;;2.67;2.30;;;;;;;;;;5008014;28;20182;-52
2023/09/13 12:03:08;;;;;;;4.10;2.77;;;;;;;;;;5008359;28;20208;-52
2023/09/13 12:05:36;;;;;;;2.33;2.17;;;;;;;;;;5002104;28;20630;-52
2023/09/13 12:08:03;;;;;;;2.50;1.97;;;;;;;;;;5006012;28;20248;-52
2023/09/13 12:10:35;;;;;;;2.50;2.30;;;;;;;;;;4990827;28;20521;-52
2023/09/13 12:13:02;;;;;;;3.37;2.30;;;;;;;;;;5007880;28;20236;-52
2023/09/13 12:15:29;;;;;;;3.27;2.40;;;;;;;;;;5004822;28;20186;-51
2023/09/13 12:18:02;;;;;;;2.30;2.07;;;;;;;;;;4994939;28;20206;-52
2023/09/13 12:20:31;;;;;;;3.20;2.50;;;;;;;;;;4988719;28;20220;-52
2023/09/13 12:22:57;;;;;;;3.07;2.70;;;;;;;;;;5010593;28;20179;-52
2023/09/13 12:25:25;;;;;;;2.73;2.43;;;;;;;;;;5007204;28;20196;-51
2023/09/13 12:27:52;;;;;;;2.87;2.67;;;;;;;;;;5004651;28;20216;-52
2023/09/13 12:30:18;;;;;;;2.83;2.10;;;;;;;;;;5002840;28;20217;-52
2023/09/13 12:32:44;;;;;;;3.00;2.17;;;;;;;;;;5005920;28;20187;-51
2023/09/13 12:35:11;;;;;;;3.23;2.30;;;;;;;;;;4990105;28;20243;-52
2023/09/13 12:37:38;;;;;;;4.37;2.47;;;;;;;;;;5005756;28;20185;-52
2023/09/13 12:40:11;;;;;;;2.43;2.20;;;;;;;;;;5005708;28;20178;-51
2023/09/13 12:42:38;;;;;;;2.70;2.50;;;;;;;;;;4998465;28;20236;-51
2023/09/13 12:45:06;;;;;;;3.00;2.13;;;;;;;;;;5004869;28;20198;-51
2023/09/13 12:47:32;;;;;;;3.17;2.43;;;;;;;;;;5003516;28;20270;-55
2023/09/13 12:49:58;;;;;;;2.23;1.90;;;;;;;;;;5012974;28;20271;-52
2023/09/13 12:52:26;;;;;;;2.70;2.50;;;;;;;;;;5000096;28;20193;-52
2023/09/13 12:54:53;;;;;;;2.70;2.50;;;;;;;;;;4984584;28;20179;-53
2023/09/13 12:57:19;;;;;;;2.63;2.13;;;;;;;;;;4988063;28;20196;-52
2023/09/13 12:59:46;;;;;;;2.37;2.10;;;;;;;;;;5015235;28;20182;-52
2023/09/13 13:02:17;;;;;;;3.50;2.70;;;;;;;;;;5006933;28;20213;-53
2023/09/13 13:04:44;;;;;;;2.40;2.20;;;;;;;;;;5008865;28;20181;-53
2023/09/13 13:07:10;;;;;;;2.43;2.23;;;;;;;;;;5008149;28;20709;-52
2023/09/13 13:09:36;;;;;;;4.07;2.13;;;;;;;;;;5018956;28;20174;-52
2023/09/13 13:12:03;;;;;;;2.40;2.20;;;;;;;;;;5017371;28;20205;-52
2023/09/13 13:14:29;;;;;;;2.63;2.43;;;;;;;;;;5011487;28;20526;-53
2023/09/13 13:16:56;;;;;;;2.83;2.33;;;;;;;;;;5011170;28;20174;-52
2023/09/13 13:19:36;;;;;;;3.43;2.30;;;;;;;;;;4990274;28;20173;-52
2023/09/13 13:22:02;;;;;;;4.43;2.50;;;;;;;;;;5012312;28;20257;-51
2023/09/13 13:24:28;;;;;;;2.60;2.40;;;;;;;;;;4996678;28;20510;-52
2023/09/13 13:26:55;;;;;;;4.17;2.60;;;;;;;;;;5007834;28;20212;-52
2023/09/13 13:29:22;;;;;;;2.50;2.30;;;;;;;;;;5018564;28;20239;-53
2023/09/13 13:31:49;;;;;;;2.73;1.97;;;;;;;;;;5012426;28;20241;-53
2023/09/13 13:34:16;;;;;;;3.13;2.20;;;;;;;;;;5007669;28;20269;-52
2023/09/13 13:36:42;;;;;;;2.13;2.03;;;;;;;;;;5012430;28;20705;-52
2023/09/13 13:39:14;;;;;;;2.80;2.20;;;;;;;;;;5018215;28;20171;-52
2023/09/13 13:41:40;;;;;;;3.00;2.17;;;;;;;;;;5016168;28;20600;-52
2023/09/13 13:44:07;;;;;;;2.20;2.00;;;;;;;;;;4992289;28;20277;-52
2023/09/13 13:46:33;;;;;;;3.77;2.73;;;;;;;;;;5018169;28;20194;-52
2023/09/13 13:48:59;;;;;;;2.33;2.00;;;;;;;;;;5023843;28;20216;-51
2023/09/13 13:51:25;;;;;;;1.87;1.73;;;;;;;;;;5014927;28;20207;-51
2023/09/13 13:53:52;;;;;;;2.37;2.00;;;;;;;;;;5011444;28;20184;-53
2023/09/13 13:56:18;;;;;;;2.67;2.47;;;;;;;;;;5010429;28;20338;-51
2023/09/13 13:58:45;;;;;;;2.33;2.00;;;;;;;;;;5002535;28;20546;-51
2023/09/13 14:01:11;;;;;;;2.73;2.53;;;;;;;;;;5011019;28;20716;-51
2023/09/13 14:03:37;;;;;;;2.20;2.00;;;;;;;;;;5001490;28;20227;-51
2023/09/13 14:06:03;;;;;;;2.30;2.10;;;;;;;;;;5006643;28;20191;-51
2023/09/13 14:08:30;;;;;;;2.10;1.83;;;;;;;;;;5009213;28;20189;-53
2023/09/13 14:10:56;;;;;;;3.93;1.57;;;;;;;;;;5010004;28;20254;-51
2023/09/13 14:13:23;;;;;;;2.30;2.10;;;;;;;;;;5004662;28;20217;-51
2023/09/13 14:15:49;;;;;;;2.20;1.80;;;;;;;;;;5009039;28;20693;-51
2023/09/13 14:18:15;;;;;;;2.30;2.10;;;;;;;;;;5006030;28;20179;-51
2023/09/13 14:20:42;;;;;;;1.97;1.70;;;;;;;;;;5009498;28;20197;-51
2023/09/13 14:23:08;;;;;;;2.73;2.27;;;;;;;;;;5008534;28;20217;-52